Time;durP1;ratioP1;P1;durP2;ratioP2;P2;SDS_P1;SDS_P2;PMS_P1;PMS_P2;Temp;Humidity;BMP_temperature;BMP_pressure;BME280_temperature;BME280_humidity;BME280_pressure;Samples;Min_cycle;Max_cycle;Signal;HPM_P1;HPM_P2
2023/09/11 00:00:53;;;;;;;0.60;0.60;;;;;;;9.09;100.00;99595.13;6257460;23;20027;-83
2023/09/11 00:03:21;;;;;;;0.60;0.60;;;;;;;9.11;100.00;99601.97;6227831;23;20016;-82
2023/09/11 00:05:50;;;;;;;0.60;0.60;;;;;;;9.08;100.00;99594.28;6247461;23;20086;-83
2023/09/11 00:08:31;;;;;;;0.60;0.60;;;;;;;9.08;100.00;99598.84;6245400;23;20031;-82
2023/09/11 00:10:59;;;;;;;0.60;0.60;;;;;;;9.09;100.00;99598.66;6219623;23;20043;-82
2023/09/11 00:13:28;;;;;;;0.60;0.60;;;;;;;9.08;100.00;99596.97;6218270;23;20055;-81
2023/09/11 00:15:56;;;;;;;0.60;0.60;;;;;;;9.10;100.00;99594.91;6217575;23;20099;-81
2023/09/11 00:18:23;;;;;;;0.60;0.60;;;;;;;9.10;100.00;99591.41;6244188;23;20024;-81
2023/09/11 00:20:51;;;;;;;0.50;0.50;;;;;;;9.03;100.00;99580.66;6243662;23;20028;-82
2023/09/11 00:23:18;;;;;;;0.55;0.55;;;;;;;8.98;100.00;99583.19;6216880;23;20024;-83
2023/09/11 00:25:46;;;;;;;0.60;0.60;;;;;;;8.98;100.00;99583.19;6245119;23;20022;-83
2023/09/11 00:28:13;;;;;;;0.60;0.60;;;;;;;8.98;100.00;99580.50;6218530;23;20078;-81
2023/09/11 00:30:40;;;;;;;0.60;0.60;;;;;;;8.95;100.00;99578.25;6246514;23;20020;-82
2023/09/11 00:33:07;;;;;;;0.60;0.60;;;;;;;8.94;100.00;99581.16;6253781;23;20329;-83
2023/09/11 00:35:34;;;;;;;0.52;0.52;;;;;;;8.87;100.00;99576.66;6245959;23;20341;-82
2023/09/11 00:38:02;;;;;;;0.60;0.60;;;;;;;8.84;100.00;99581.69;6216822;23;20340;-82
2023/09/11 00:40:29;;;;;;;0.60;0.60;;;;;;;8.82;100.00;99573.81;6243410;23;20024;-83
2023/09/11 00:42:56;;;;;;;0.60;0.60;;;;;;;8.84;100.00;99571.72;6243045;23;20024;-82
2023/09/11 00:45:24;;;;;;;0.60;0.60;;;;;;;8.85;100.00;99572.53;6243138;22;20024;-82
2023/09/11 00:47:52;;;;;;;0.50;0.50;;;;;;;8.86;100.00;99574.19;6243328;23;20035;-82
2023/09/11 00:50:20;;;;;;;0.60;0.60;;;;;;;8.85;100.00;99575.25;6216691;23;20594;-82
2023/09/11 00:52:47;;;;;;;0.60;0.60;;;;;;;8.83;100.00;99569.25;6243263;23;20074;-83
2023/09/11 00:55:19;;;;;;;0.60;0.60;;;;;;;8.84;100.00;99570.91;6216784;23;20024;-82
2023/09/11 00:57:46;;;;;;;0.60;0.60;;;;;;;8.81;100.00;99566.78;6216360;23;20069;-82
2023/09/11 01:00:14;;;;;;;0.60;0.60;;;;;;;8.84;100.00;99570.91;6191494;23;20352;-82
2023/09/11 01:02:41;;;;;;;0.60;0.60;;;;;;;8.84;100.00;99574.41;6243129;23;20046;-83
2023/09/11 01:05:09;;;;;;;0.60;0.60;;;;;;;8.85;100.00;99567.16;6242635;23;20040;-83
2023/09/11 01:07:36;;;;;;;0.60;0.60;;;;;;;8.87;100.00;99565.09;6243058;23;20098;-83
2023/09/11 01:10:09;;;;;;;0.60;0.60;;;;;;;8.86;100.00;99560.72;6242570;23;20023;-81
2023/09/11 01:12:36;;;;;;;0.60;0.60;;;;;;;8.82;100.00;99564.91;6216624;23;20103;-81
2023/09/11 01:15:06;;;;;;;0.60;0.60;;;;;;;8.80;100.00;99567.00;6215928;23;20102;-81
2023/09/11 01:17:38;;;;;;;0.60;0.60;;;;;;;8.77;100.00;99564.75;6166841;23;20024;-82
2023/09/11 01:20:38;;;;;;;0.60;0.60;;;;;;;8.79;100.00;99558.09;6242955;23;20020;-81
2023/09/11 01:23:32;;;;;;;0.60;0.60;;;;;;;8.74;100.00;99554.44;6242847;23;20336;-82
2023/09/11 01:26:12;;;;;;;0.60;0.60;;;;;;;8.69;100.00;99552.38;6242730;23;20031;-82
2023/09/11 01:29:02;;;;;;;0.60;0.60;;;;;;;8.70;100.00;99558.59;6243105;23;20358;-82
2023/09/11 01:31:34;;;;;;;0.60;0.60;;;;;;;8.68;100.00;99558.78;6216256;23;20024;-82
2023/09/11 01:34:03;;;;;;;0.52;0.52;;;;;;;8.65;100.00;99561.94;6242892;23;20055;-82
2023/09/11 01:36:30;;;;;;;0.60;0.60;;;;;;;8.58;100.00;99558.47;6216676;23;20024;-82
2023/09/11 01:38:58;;;;;;;0.60;0.60;;;;;;;8.58;100.00;99556.63;6246402;23;20520;-83
2023/09/11 01:41:34;;;;;;;0.60;0.60;;;;;;;8.62;100.00;99557.81;6219916;23;20359;-81
2023/09/11 01:44:13;;;;;;;0.60;0.60;;;;;;;8.61;100.00;99556.16;6219889;23;20024;-81
2023/09/11 01:46:46;;;;;;;0.60;0.60;;;;;;;8.57;100.00;99554.94;6220674;23;20586;-82
2023/09/11 01:49:13;;;;;;;0.60;0.60;;;;;;;8.59;100.00;99558.25;6219795;23;20095;-83
2023/09/11 01:51:41;;;;;;;0.60;0.60;;;;;;;8.56;100.00;99553.31;6194743;23;20395;-83
2023/09/11 01:54:10;;;;;;;0.60;0.60;;;;;;;8.52;100.00;99557.47;6246317;23;20479;-82
2023/09/11 01:56:37;;;;;;;0.60;0.60;;;;;;;8.49;100.00;99549.84;6246453;23;20026;-82
2023/09/11 01:59:07;;;;;;;0.60;0.60;;;;;;;8.49;100.00;99555.22;6244645;23;20077;-82
2023/09/11 02:01:35;;;;;;;0.60;0.60;;;;;;;8.44;100.00;99544.28;6219772;23;20024;-82
2023/09/11 02:04:02;;;;;;;0.60;0.60;;;;;;;8.42;100.00;99546.38;6246067;23;20103;-82
2023/09/11 02:06:29;;;;;;;0.60;0.60;;;;;;;8.39;100.00;99552.16;6246393;23;20065;-83
2023/09/11 02:08:57;;;;;;;0.60;0.60;;;;;;;8.36;100.00;99552.59;6246264;23;20051;-83
2023/09/11 02:11:27;;;;;;;0.60;0.60;;;;;;;8.33;100.00;99548.47;6219376;23;20024;-82
2023/09/11 02:13:54;;;;;;;0.60;0.60;;;;;;;8.23;100.00;99548.94;6245995;23;20032;-83
2023/09/11 02:16:22;;;;;;;0.60;0.60;;;;;;;8.25;100.00;99546.00;6219402;23;20368;-81
2023/09/11 02:18:49;;;;;;;0.60;0.60;;;;;;;8.21;100.00;99550.19;6245970;23;20028;-85
2023/09/11 02:21:16;;;;;;;0.60;0.60;;;;;;;8.13;100.00;99551.28;6246089;23;20028;-82
2023/09/11 02:23:44;;;;;;;0.60;0.60;;;;;;;8.08;100.00;99551.09;6219956;23;20404;-82
2023/09/11 02:26:11;;;;;;;0.60;0.60;;;;;;;8.02;100.00;99551.94;6218789;23;20370;-83
2023/09/11 02:28:38;;;;;;;0.60;0.60;;;;;;;7.97;100.00;99549.06;6219604;23;20028;-82
2023/09/11 02:31:08;;;;;;;0.60;0.60;;;;;;;7.91;100.00;99541.88;6245380;23;20436;-82
2023/09/11 02:33:35;;;;;;;0.60;0.60;;;;;;;7.99;100.00;99541.63;6246174;23;20026;-82
2023/09/11 02:36:03;;;;;;;0.60;0.60;;;;;;;8.07;100.00;99544.06;6219249;23;20020;-83
2023/09/11 02:38:31;;;;;;;0.60;0.60;;;;;;;8.14;100.00;99544.84;6219387;23;20112;-82
2023/09/11 02:40:59;;;;;;;0.60;0.60;;;;;;;8.04;100.00;99539.94;6220149;23;20020;-82
2023/09/11 02:43:36;;;;;;;0.70;0.70;;;;;;;8.05;100.00;99543.44;6219654;23;20056;-83
2023/09/11 02:46:03;;;;;;;0.60;0.60;;;;;;;8.04;100.00;99545.31;6246395;22;20124;-82
2023/09/11 02:48:31;;;;;;;0.70;0.70;;;;;;;8.05;100.00;99546.13;6219175;23;20047;-81
2023/09/11 02:51:00;;;;;;;0.60;0.60;;;;;;;7.99;100.00;99544.31;6244788;23;20097;-82
2023/09/11 02:53:27;;;;;;;0.60;0.60;;;;;;;7.93;100.00;99547.88;6218158;23;20020;-83
2023/09/11 02:55:55;;;;;;;0.60;0.60;;;;;;;7.94;100.00;99549.50;6218094;23;20020;-82
2023/09/11 02:58:22;;;;;;;0.60;0.60;;;;;;;7.87;100.00;99533.41;6217200;23;20035;-82
2023/09/11 03:00:50;;;;;;;0.70;0.70;;;;;;;7.93;100.00;99546.00;6244809;23;20043;-84
2023/09/11 03:03:17;;;;;;;0.70;0.70;;;;;;;7.92;100.00;99540.81;6218049;23;20463;-82
2023/09/11 03:05:45;;;;;;;0.60;0.60;;;;;;;7.89;100.00;99539.38;6218295;23;20044;-82
2023/09/11 03:08:13;;;;;;;0.60;0.60;;;;;;;7.95;100.00;99545.75;6243939;23;20023;-82
2023/09/11 03:10:40;;;;;;;0.60;0.60;;;;;;;7.99;100.00;99549.69;6217587;23;20531;-82
2023/09/11 03:13:07;;;;;;;0.60;0.60;;;;;;;8.00;100.00;99543.25;6246024;23;20019;-84
2023/09/11 03:15:35;;;;;;;0.60;0.60;;;;;;;8.00;100.00;99545.94;6217985;23;20042;-84
2023/09/11 03:18:02;;;;;;;0.60;0.60;;;;;;;7.99;100.00;99547.00;6250053;23;20528;-85
2023/09/11 03:20:31;;;;;;;0.70;0.70;;;;;;;7.97;100.00;99544.50;6216494;22;20031;-85
2023/09/11 03:22:59;;;;;;;0.70;0.70;;;;;;;7.96;100.00;99550.94;6219813;23;20020;-83
2023/09/11 03:25:27;;;;;;;0.60;0.60;;;;;;;7.95;100.00;99552.00;6217459;23;20127;-83
2023/09/11 03:27:54;;;;;;;0.60;0.60;;;;;;;7.88;100.00;99545.81;6217614;23;20028;-83
2023/09/11 03:30:22;;;;;;;0.70;0.70;;;;;;;7.95;100.00;99545.75;6217425;23;20031;-85
2023/09/11 03:32:50;;;;;;;0.70;0.70;;;;;;;8.03;100.00;99556.28;6217375;23;20030;-84
2023/09/11 03:35:18;;;;;;;0.70;0.70;;;;;;;8.04;100.00;99555.25;6217637;23;20028;-83
2023/09/11 03:37:46;;;;;;;0.60;0.60;;;;;;;8.09;100.00;99557.28;6192118;23;20131;-83
2023/09/11 03:40:14;;;;;;;0.70;0.70;;;;;;;8.16;100.00;99556.22;6216893;23;20394;-84
2023/09/11 03:42:42;;;;;;;0.60;0.60;;;;;;;8.21;100.00;99551.00;6218345;23;20375;-87
2023/09/11 03:45:09;;;;;;;0.70;0.70;;;;;;;8.29;100.00;99546.44;6217659;23;20078;-84
2023/09/11 03:47:37;;;;;;;0.60;0.60;;;;;;;8.29;100.00;99541.03;6244278;23;20024;-84
2023/09/11 03:50:04;;;;;;;0.60;0.60;;;;;;;8.32;100.00;99551.38;6199564;23;20024;-84
2023/09/11 03:52:32;;;;;;;0.70;0.70;;;;;;;8.33;100.00;99550.31;6225361;23;20040;-84
2023/09/11 03:54:59;;;;;;;0.60;0.60;;;;;;;8.35;100.00;99548.22;6220697;23;20016;-83
2023/09/11 03:57:27;;;;;;;0.60;0.60;;;;;;;8.36;100.00;99549.91;6243236;23;20024;-83
2023/09/11 03:59:55;;;;;;;0.70;0.70;;;;;;;8.44;100.00;99550.47;6217156;23;20028;-84
2023/09/11 04:02:22;;;;;;;0.65;0.65;;;;;;;8.56;100.00;99556.00;6217627;23;20024;-82
2023/09/11 04:04:50;;;;;;;0.70;0.70;;;;;;;8.64;100.00;99555.72;6217184;23;20031;-83
2023/09/11 04:07:18;;;;;;;0.70;0.70;;;;;;;8.75;100.00;99558.75;6216740;23;20097;-84
2023/09/11 04:09:45;;;;;;;0.60;0.60;;;;;;;8.81;100.00;99555.16;6244555;23;20051;-84
2023/09/11 04:12:16;;;;;;;0.60;0.60;;;;;;;8.81;100.00;99556.03;6243501;23;20051;-83
2023/09/11 04:14:45;;;;;;;0.60;0.60;;;;;;;8.80;100.00;99554.34;6217068;23;20090;-83
2023/09/11 04:17:12;;;;;;;0.60;0.60;;;;;;;8.96;100.00;99555.66;6216460;23;20108;-81
2023/09/11 04:19:40;;;;;;;0.70;0.70;;;;;;;9.04;100.00;99552.72;6216930;23;20039;-84
2023/09/11 04:22:11;;;;;;;0.70;0.70;;;;;;;9.18;100.00;99556.09;6217493;23;20024;-84
2023/09/11 04:24:38;;;;;;;0.70;0.70;;;;;;;9.38;100.00;99552.38;6193237;23;20024;-83
2023/09/11 04:27:08;;;;;;;0.70;0.70;;;;;;;9.58;100.00;99557.56;6217348;23;20024;-83
2023/09/11 04:29:36;;;;;;;0.70;0.70;;;;;;;9.71;100.00;99544.75;6216856;23;20046;-84
2023/09/11 04:32:04;;;;;;;0.60;0.60;;;;;;;9.84;100.00;99556.44;6215047;23;20474;-85
2023/09/11 04:34:33;;;;;;;0.60;0.60;;;;;;;9.94;100.00;99549.44;6216739;23;20031;-84
2023/09/11 04:37:00;;;;;;;0.60;0.60;;;;;;;10.08;100.00;99555.50;6165768;23;20456;-84
2023/09/11 04:39:27;;;;;;;0.68;0.68;;;;;;;10.10;99.63;99550.72;6216789;23;20020;-86
2023/09/11 04:41:55;;;;;;;0.60;0.60;;;;;;;10.05;99.32;99547.03;6217229;23;20035;-89
2023/09/11 04:44:23;;;;;;;0.60;0.60;;;;;;;10.08;99.04;99552.81;6218247;23;20047;-85
2023/09/11 04:46:53;;;;;;;0.52;0.52;;;;;;;10.08;99.26;99544.72;6219078;23;20024;-85
2023/09/11 04:49:21;;;;;;;0.60;0.60;;;;;;;10.03;99.08;99546.47;6186682;23;20368;-86
2023/09/11 04:51:49;;;;;;;0.60;0.60;;;;;;;10.12;98.84;99548.59;6240973;23;20024;-84
2023/09/11 04:54:17;;;;;;;0.60;0.60;;;;;;;10.20;98.78;99542.91;6191181;23;20582;-87
2023/09/11 04:56:51;;;;;;;0.60;0.60;;;;;;;10.28;98.72;99555.25;6190717;23;20108;-85
2023/09/11 04:59:19;;;;;;;0.60;0.60;;;;;;;10.38;98.13;99562.78;6211812;23;20108;-87
2023/09/11 05:01:48;;;;;;;0.60;0.60;;;;;;;10.35;98.00;99549.75;6186913;23;20359;-85
2023/09/11 05:04:15;;;;;;;0.60;0.60;;;;;;;10.40;97.98;99552.59;6159572;23;20063;-86
2023/09/11 05:06:43;;;;;;;0.60;0.60;;;;;;;10.43;97.45;99546.72;6208594;23;20028;-86
2023/09/11 05:09:13;;;;;;;0.60;0.60;;;;;;;10.60;97.32;99558.50;6237875;23;20047;-85
2023/09/11 05:11:44;;;;;;;0.70;0.70;;;;;;;10.64;96.41;99548.09;6216965;23;20020;-86
2023/09/11 05:14:13;;;;;;;0.60;0.60;;;;;;;10.83;95.62;99549.63;6216658;23;20024;-85
2023/09/11 05:16:40;;;;;;;0.70;0.70;;;;;;;11.08;95.35;99554.00;6215650;23;20028;-85
2023/09/11 05:19:07;;;;;;;0.60;0.60;;;;;;;11.35;94.61;99548.13;6165577;23;20023;-84
2023/09/11 05:21:36;;;;;;;0.60;0.60;;;;;;;11.53;93.57;99545.28;6242731;23;20098;-84
2023/09/11 05:24:05;;;;;;;0.63;0.63;;;;;;;11.77;92.20;99546.06;6243071;23;20051;-85
2023/09/11 05:26:32;;;;;;;0.60;0.60;;;;;;;11.90;91.04;99540.41;6243346;23;20027;-85
2023/09/11 05:28:59;;;;;;;0.65;0.65;;;;;;;12.08;90.66;99544.81;6243328;23;20277;-84
2023/09/11 05:31:27;;;;;;;0.60;0.60;;;;;;;12.21;89.53;99540.19;6186543;23;20020;-85
2023/09/11 05:33:54;;;;;;;0.60;0.60;;;;;;;12.17;88.76;99528.19;6212266;23;20029;-85
2023/09/11 05:36:22;;;;;;;0.52;0.52;;;;;;;12.28;88.77;99535.44;6212973;23;20021;-84
2023/09/11 05:38:54;;;;;;;0.60;0.60;;;;;;;12.17;88.27;99514.66;6213373;23;20099;-84
2023/09/11 05:41:22;;;;;;;0.60;0.60;;;;;;;12.38;87.90;99537.50;6213942;23;20025;-83
2023/09/11 05:43:51;;;;;;;0.60;0.60;;;;;;;12.44;87.93;99534.66;6187981;23;20044;-84
2023/09/11 05:46:18;;;;;;;0.60;0.60;;;;;;;12.51;87.34;99529.91;6121184;23;20116;-84
2023/09/11 05:48:49;;;;;;;0.50;0.50;;;;;;;12.65;87.08;99530.41;6121367;23;20093;-84
2023/09/11 05:51:17;;;;;;;0.60;0.60;;;;;;;12.70;86.72;99527.78;6120311;23;20034;-85
2023/09/11 05:53:44;;;;;;;0.50;0.50;;;;;;;12.77;86.34;99530.34;6121212;23;20021;-84
2023/09/11 05:56:16;;;;;;;0.60;0.60;;;;;;;12.83;85.83;99526.63;6120100;23;20032;-83
2023/09/11 05:58:44;;;;;;;0.50;0.50;;;;;;;12.86;85.56;99528.84;6120652;23;20022;-84
2023/09/11 06:01:14;;;;;;;0.57;0.57;;;;;;;12.95;85.54;99524.66;6119981;23;20097;-84
2023/09/11 06:03:42;;;;;;;0.50;0.50;;;;;;;12.97;84.93;99527.94;6122148;23;20026;-83
2023/09/11 06:06:09;;;;;;;0.50;0.50;;;;;;;12.98;85.02;99516.03;6120740;23;20430;-85
2023/09/11 06:08:36;;;;;;;0.60;0.60;;;;;;;13.05;84.81;99518.59;6097431;23;20026;-84
2023/09/11 06:11:04;;;;;;;0.50;0.50;;;;;;;13.09;84.59;99511.63;6121576;23;20441;-84
2023/09/11 06:13:33;;;;;;;0.60;0.60;;;;;;;13.22;84.12;99515.84;6122417;23;20033;-85
2023/09/11 06:16:01;;;;;;;0.60;0.60;;;;;;;13.24;83.84;99524.53;6097076;23;20026;-84
2023/09/11 06:18:28;;;;;;;0.50;0.50;;;;;;;13.35;83.65;99523.66;6208758;23;20024;-84
2023/09/11 06:20:58;;;;;;;0.50;0.50;;;;;;;13.46;82.98;99523.78;6213372;23;20076;-84
2023/09/11 06:23:26;;;;;;;0.50;0.50;;;;;;;13.55;82.29;99512.28;6185823;23;20369;-84
2023/09/11 06:25:53;;;;;;;0.50;0.50;;;;;;;13.71;81.91;99518.69;6214905;23;20075;-87
2023/09/11 06:28:20;;;;;;;0.43;0.43;;;;;;;13.82;80.93;99515.06;6188710;23;20021;-83
2023/09/11 06:30:47;;;;;;;0.60;0.60;;;;;;;13.86;80.34;99513.44;6217988;23;20032;-86
2023/09/11 06:33:15;;;;;;;0.50;0.50;;;;;;;13.78;79.51;99515.81;6245889;23;20050;-87
2023/09/11 06:35:47;;;;;;;0.50;0.50;;;;;;;13.89;79.84;99514.84;6218286;23;20027;-83
2023/09/11 06:38:15;;;;;;;0.50;0.50;;;;;;;13.97;79.58;99516.28;6250337;23;20028;-85
2023/09/11 06:40:44;;;;;;;0.50;0.50;;;;;;;14.08;79.37;99505.28;6261650;23;20027;-84
2023/09/11 06:43:11;;;;;;;0.60;0.60;;;;;;;14.27;79.19;99513.06;6224643;23;20020;-83
2023/09/11 06:45:38;;;;;;;0.50;0.50;;;;;;;14.40;78.72;99509.94;6220672;23;20024;-85
2023/09/11 06:48:06;;;;;;;0.50;0.50;;;;;;;14.47;78.15;99507.03;6246090;23;20146;-86
2023/09/11 06:50:34;;;;;;;0.50;0.50;;;;;;;14.51;78.37;99498.09;6251137;23;20024;-84
2023/09/11 06:53:01;;;;;;;0.50;0.50;;;;;;;14.67;78.25;99509.13;6242767;23;20020;-82
2023/09/11 06:55:28;;;;;;;0.50;0.50;;;;;;;14.97;77.57;99516.69;6216408;23;20070;-82
2023/09/11 06:57:57;;;;;;;0.50;0.50;;;;;;;15.06;76.58;99511.59;6244713;23;20030;-83
2023/09/11 07:00:25;;;;;;;0.50;0.50;;;;;;;15.09;76.64;99508.34;6244370;23;20020;-83
2023/09/11 07:02:54;;;;;;;0.50;0.50;;;;;;;15.11;76.34;99501.56;6219091;23;20028;-83
2023/09/11 07:05:22;;;;;;;0.50;0.50;;;;;;;15.18;76.37;99506.78;6215529;23;20608;-82
2023/09/11 07:07:50;;;;;;;0.50;0.50;;;;;;;15.39;75.42;99518.59;6244571;23;20016;-84
2023/09/11 07:10:18;;;;;;;0.50;0.50;;;;;;;15.36;74.67;99509.03;6219152;23;20020;-84
2023/09/11 07:13:07;;;;;;;0.50;0.50;;;;;;;15.58;74.60;99519.78;6259382;23;20699;-82
2023/09/11 07:15:34;;;;;;;0.60;0.60;;;;;;;15.57;74.88;99523.59;6247207;23;20051;-82
2023/09/11 07:18:04;;;;;;;0.52;0.52;;;;;;;15.69;73.92;99514.38;6193565;23;20039;-84
2023/09/11 07:20:32;;;;;;;0.50;0.50;;;;;;;15.72;73.63;99514.72;6244414;23;20028;-83
2023/09/11 07:23:01;;;;;;;0.50;0.50;;;;;;;15.75;73.12;99513.38;6218052;23;20398;-83
2023/09/11 07:25:28;;;;;;;0.50;0.50;;;;;;;15.85;73.14;99516.13;6217132;23;20024;-83
2023/09/11 07:27:55;;;;;;;0.50;0.50;;;;;;;15.89;72.67;99514.50;6217503;23;20462;-83
2023/09/11 07:30:23;;;;;;;0.50;0.50;;;;;;;16.08;72.34;99519.44;6218554;23;20082;-84
2023/09/11 07:32:52;;;;;;;0.50;0.50;;;;;;;16.32;71.49;99515.16;6183704;23;20338;-83
2023/09/11 07:35:23;;;;;;;0.50;0.50;;;;;;;16.41;70.68;99518.97;6184580;23;20088;-84
2023/09/11 07:37:51;;;;;;;0.50;0.50;;;;;;;16.46;69.56;99518.19;6157284;23;20104;-83
2023/09/11 07:40:19;;;;;;;0.50;0.50;;;;;;;16.52;69.54;99516.28;6184833;23;20028;-82
2023/09/11 07:42:47;;;;;;;0.40;0.40;;;;;;;16.62;69.73;99519.00;6159115;23;20027;-84
2023/09/11 07:45:14;;;;;;;0.50;0.50;;;;;;;16.84;69.29;99510.59;6183584;23;20480;-83
2023/09/11 07:47:41;;;;;;;0.60;0.60;;;;;;;17.14;68.34;99506.97;6158580;23;20092;-85
2023/09/11 07:50:09;;;;;;;0.50;0.50;;;;;;;17.32;67.34;99511.88;6158033;23;20025;-83
2023/09/11 07:52:37;;;;;;;0.60;0.60;;;;;;;17.36;67.18;99516.78;6183515;23;20025;-83
2023/09/11 07:55:06;;;;;;;0.50;0.50;;;;;;;17.20;67.48;99519.53;6183830;23;20050;-84
2023/09/11 07:57:40;;;;;;;0.50;0.50;;;;;;;17.40;66.80;99504.22;6184046;23;20021;-83
2023/09/11 08:00:08;;;;;;;0.50;0.50;;;;;;;17.87;65.44;99516.63;6184206;23;20025;-81
2023/09/11 08:02:36;;;;;;;0.52;0.52;;;;;;;17.87;64.95;99508.44;6184151;23;20021;-84
2023/09/11 08:05:03;;;;;;;0.50;0.50;;;;;;;18.17;63.76;99516.44;6157830;23;20025;-83
2023/09/11 08:07:35;;;;;;;0.60;0.60;;;;;;;18.32;63.04;99521.00;6185034;23;20025;-83
2023/09/11 08:10:03;;;;;;;0.50;0.50;;;;;;;18.73;62.91;99500.75;6185267;23;20080;-82
2023/09/11 08:12:32;;;;;;;0.60;0.60;;;;;;;19.30;59.93;99507.38;6184536;23;20095;-83
2023/09/11 08:15:00;;;;;;;0.50;0.50;;;;;;;19.36;59.42;99510.88;6186375;23;20025;-83
2023/09/11 08:17:30;;;;;;;0.50;0.50;;;;;;;19.38;58.42;99514.13;6187103;23;20037;-84
2023/09/11 08:19:58;;;;;;;0.50;0.50;;;;;;;19.60;57.95;99508.16;6134845;23;20048;-84
2023/09/11 08:22:25;;;;;;;0.60;0.60;;;;;;;19.94;56.60;99515.41;6157432;23;20108;-84
2023/09/11 08:24:52;;;;;;;0.50;0.50;;;;;;;19.83;56.45;99515.53;6183354;23;20346;-84
2023/09/11 08:27:20;;;;;;;0.60;0.60;;;;;;;20.21;55.45;99501.88;6156679;23;20021;-83
2023/09/11 08:29:48;;;;;;;0.60;0.60;;;;;;;20.25;54.91;99496.63;6180525;23;20017;-89
2023/09/11 08:32:16;;;;;;;0.60;0.60;;;;;;;20.24;53.82;99492.25;6205788;23;20048;-81
2023/09/11 08:34:45;;;;;;;0.60;0.60;;;;;;;20.30;53.76;99497.34;6191500;23;20385;-84
2023/09/11 08:37:12;;;;;;;0.60;0.60;;;;;;;20.45;53.65;99490.81;6244069;23;20074;-82
2023/09/11 08:39:39;;;;;;;0.60;0.60;;;;;;;20.60;53.12;99494.47;6220401;23;20032;-83
2023/09/11 08:42:08;;;;;;;0.60;0.60;;;;;;;21.16;52.23;99488.00;6243026;23;20020;-85
2023/09/11 08:44:36;;;;;;;0.57;0.57;;;;;;;21.76;50.63;99484.41;6190198;23;20028;-82
2023/09/11 08:47:05;;;;;;;0.60;0.60;;;;;;;22.22;49.88;99492.47;6215952;23;20020;-82
2023/09/11 08:49:33;;;;;;;0.60;0.60;;;;;;;22.38;48.75;99489.34;6215896;23;20094;-80
2023/09/11 08:52:04;;;;;;;0.50;0.50;;;;;;;22.66;48.19;99485.38;6216296;23;20467;-83
2023/09/11 08:54:38;;;;;;;0.52;0.52;;;;;;;22.97;47.69;99486.53;6242064;23;20031;-82
2023/09/11 08:57:11;;;;;;;0.50;0.50;;;;;;;23.14;46.48;99481.13;6242171;23;20520;-83
2023/09/11 08:59:41;;;;;;;0.52;0.52;;;;;;;23.12;46.63;99481.47;6215825;23;20404;-83
2023/09/11 09:02:08;;;;;;;0.40;0.40;;;;;;;22.84;47.15;99482.72;6216162;23;20459;-81
2023/09/11 09:04:37;;;;;;;0.50;0.50;;;;;;;22.67;47.58;99470.50;6214996;23;20028;-82
2023/09/11 09:07:07;;;;;;;0.60;0.60;;;;;;;23.23;46.08;99470.97;6215613;23;20062;-82
2023/09/11 09:09:35;;;;;;;0.60;0.60;;;;;;;23.70;44.78;99474.06;6242271;23;20118;-82
2023/09/11 09:12:02;;;;;;;0.60;0.60;;;;;;;24.02;43.88;99475.59;6242776;23;20096;-81
2023/09/11 09:14:30;;;;;;;0.60;0.60;;;;;;;24.49;42.16;99479.72;6242598;23;20027;-81
2023/09/11 09:17:00;;;;;;;0.50;0.50;;;;;;;24.68;41.88;99476.59;6192237;23;20027;-81
2023/09/11 09:19:27;;;;;;;0.60;0.60;;;;;;;25.02;40.76;99475.72;6240406;23;20030;-83
2023/09/11 09:22:13;;;;;;;0.40;0.40;;;;;;;23.84;42.34;99475.91;6242176;23;20024;-81
2023/09/11 09:24:51;;;;;;;0.60;0.60;;;;;;;23.93;43.03;99476.75;6214843;23;20019;-83
2023/09/11 09:27:28;;;;;;;0.60;0.60;;;;;;;24.47;41.52;99474.53;6241523;23;20083;-81
2023/09/11 09:29:55;;;;;;;0.30;0.30;;;;;;;23.60;43.37;99463.34;6242097;23;20103;-82
2023/09/11 09:32:23;;;;;;;0.30;0.30;;;;;;;22.79;44.46;99471.84;6241440;23;20419;-82
2023/09/11 09:34:53;;;;;;;0.40;0.40;;;;;;;22.07;46.30;99468.03;6189916;23;20028;-81
2023/09/11 09:37:21;;;;;;;0.40;0.40;;;;;;;21.26;47.83;99478.78;6240986;23;20132;-81
2023/09/11 09:39:50;;;;;;;0.40;0.40;;;;;;;20.90;49.01;99468.47;6215631;23;20028;-80
2023/09/11 09:42:17;;;;;;;0.30;0.30;;;;;;;20.59;49.83;99462.69;6214960;23;20027;-82
2023/09/11 09:44:48;;;;;;;0.40;0.40;;;;;;;20.59;50.42;99477.22;6214097;23;20813;-81
2023/09/11 09:47:20;;;;;;;0.30;0.30;;;;;;;20.55;50.46;99468.75;6242028;23;20058;-81
2023/09/11 09:49:53;;;;;;;0.30;0.30;;;;;;;20.40;50.99;99457.19;6241952;23;20020;-81
2023/09/11 09:52:30;;;;;;;0.40;0.40;;;;;;;20.24;50.87;99462.91;6215907;23;20359;-82
2023/09/11 09:55:07;;;;;;;0.40;0.40;;;;;;;19.68;51.98;99461.78;6214707;23;20095;-82
2023/09/11 09:57:34;;;;;;;0.40;0.40;;;;;;;19.33;52.42;99465.75;6241632;23;20339;-82
2023/09/11 10:00:03;;;;;;;0.40;0.40;;;;;;;19.07;53.47;99464.41;6244009;23;20610;-82
2023/09/11 10:02:35;;;;;;;0.45;0.45;;;;;;;19.01;53.76;99461.69;6243929;23;20016;-83
2023/09/11 10:05:06;;;;;;;0.40;0.40;;;;;;;19.18;53.65;99457.72;6249283;23;20024;-84
2023/09/11 10:07:44;;;;;;;0.70;0.70;;;;;;;19.67;52.55;99454.69;6200603;23;20024;-84
2023/09/11 10:10:38;;;;;;;0.80;0.80;;;;;;;22.43;47.24;99461.72;6219787;23;20046;-82
2023/09/11 10:13:07;;;;;;;0.80;0.80;;;;;;;24.23;42.82;99452.91;6212074;23;20048;-83
2023/09/11 10:15:36;;;;;;;0.55;0.55;;;;;;;25.17;41.38;99457.81;6244094;23;20020;-83
2023/09/11 10:18:05;;;;;;;0.40;0.40;;;;;;;25.26;40.60;99459.41;6217891;23;20020;-84
2023/09/11 10:20:32;;;;;;;0.55;0.55;;;;;;;25.06;40.63;99458.16;6244183;23;20075;-81
2023/09/11 10:23:02;;;;;;;0.60;0.60;;;;;;;26.12;39.01;99448.19;6243647;23;20055;-82
2023/09/11 10:25:33;;;;;;;0.40;0.40;;;;;;;26.43;37.91;99458.81;6217384;23;20360;-82
2023/09/11 10:28:05;;;;;;;0.60;0.60;;;;;;;27.03;37.62;99442.78;6216853;23;20024;-82
2023/09/11 10:30:54;;;;;;;0.30;0.30;;;;;;;27.06;36.51;99441.28;6243526;23;20524;-82
2023/09/11 10:33:34;;;;;;;0.40;0.40;;;;;;;25.96;38.24;99449.97;6220581;23;20030;-81
2023/09/11 10:36:10;;;;;;;0.60;0.60;;;;;;;26.89;36.50;99440.34;6218437;23;20027;-81
2023/09/11 10:38:38;;;;;;;0.40;0.40;;;;;;;26.53;36.46;99444.59;6248178;23;20020;-82
2023/09/11 10:41:05;;;;;;;0.30;0.30;;;;;;;25.37;38.39;99448.81;6248321;23;20107;-81
2023/09/11 10:43:35;;;;;;;0.40;0.40;;;;;;;24.47;40.50;99446.94;6218818;23;20020;-83
2023/09/11 10:46:16;;;;;;;0.30;0.30;;;;;;;24.12;40.62;99446.91;6217824;23;20024;-82
2023/09/11 10:48:43;;;;;;;0.30;0.30;;;;;;;23.48;42.09;99454.88;6243195;23;20059;-82
2023/09/11 10:51:12;;;;;;;0.30;0.30;;;;;;;23.23;42.84;99453.66;6216799;23;20030;-81
2023/09/11 10:53:40;;;;;;;0.30;0.30;;;;;;;22.94;43.48;99449.47;6243589;23;20403;-82
2023/09/11 10:56:09;;;;;;;0.30;0.30;;;;;;;22.38;44.88;99450.84;6217946;23;20020;-83
2023/09/11 10:58:38;;;;;;;0.30;0.30;;;;;;;22.04;45.71;99452.19;6218409;23;20028;-83
2023/09/11 11:01:06;;;;;;;0.40;0.40;;;;;;;21.90;45.69;99449.44;6244853;23;20028;-82
2023/09/11 11:03:34;;;;;;;0.40;0.40;;;;;;;21.82;45.68;99450.19;6243454;23;20024;-83
2023/09/11 11:06:02;;;;;;;0.35;0.35;;;;;;;22.01;45.49;99450.06;6243318;23;20027;-83
2023/09/11 11:08:33;;;;;;;0.32;0.32;;;;;;;21.98;45.46;99447.94;6243876;23;20336;-83
2023/09/11 11:11:01;;;;;;;0.40;0.40;;;;;;;21.72;45.98;99444.91;6243665;23;20043;-83
2023/09/11 11:13:38;;;;;;;0.30;0.30;;;;;;;21.61;46.18;99447.88;6244169;23;20465;-84
2023/09/11 11:16:19;;;;;;;0.30;0.30;;;;;;;21.46;46.78;99447.41;6216482;23;20031;-85
2023/09/11 11:18:51;;;;;;;0.32;0.32;;;;;;;21.27;47.33;99441.97;6243327;23;20304;-83
2023/09/11 11:21:19;;;;;;;0.30;0.30;;;;;;;21.14;47.92;99444.41;6216523;23;20027;-86
2023/09/11 11:23:54;;;;;;;0.32;0.32;;;;;;;20.98;48.69;99448.56;6215958;23;20030;-85
2023/09/11 11:26:25;;;;;;;0.30;0.30;;;;;;;20.83;49.13;99446.09;6243568;23;20470;-86
2023/09/11 11:28:53;;;;;;;0.30;0.30;;;;;;;20.78;49.55;99441.50;6217763;23;20031;-86
2023/09/11 11:31:21;;;;;;;0.30;0.30;;;;;;;20.85;49.76;99454.84;6243575;23;20024;-85
2023/09/11 11:33:51;;;;;;;0.30;0.30;;;;;;;20.92;49.19;99447.84;6244882;23;20024;-86
2023/09/11 11:36:19;;;;;;;0.70;0.70;;;;;;;22.36;46.65;99442.94;6217380;23;20382;-85
2023/09/11 11:38:47;;;;;;;0.60;0.60;;;;;;;24.36;42.73;99451.94;6243743;23;20020;-85
2023/09/11 11:41:15;;;;;;;0.60;0.60;;;;;;;25.31;40.48;99439.09;6217088;23;20024;-83
2023/09/11 11:43:42;;;;;;;0.60;0.60;;;;;;;26.48;38.90;99435.66;6245523;23;20107;-85